createdAt,value
2023-01-19T00:01:29.862Z,38.90
2023-01-19T00:03:57.180Z,39.15
2023-01-19T00:06:24.564Z,39.28
2023-01-19T00:08:52.098Z,40.03
2023-01-19T00:11:20.128Z,38.83
2023-01-19T00:13:50.677Z,40.13
2023-01-19T00:16:19.564Z,39.63
2023-01-19T00:18:47.657Z,38.65
2023-01-19T00:21:14.926Z,39.03
2023-01-19T00:23:43.788Z,38.38
2023-01-19T00:26:11.018Z,37.92
2023-01-19T00:28:38.287Z,38.85
2023-01-19T00:31:06.133Z,37.63
2023-01-19T00:33:33.383Z,38.67
2023-01-19T00:36:01.086Z,38.88
2023-01-19T00:38:28.399Z,37.55
2023-01-19T00:40:55.767Z,38.55
2023-01-19T00:43:23.061Z,38.25
2023-01-19T00:45:50.370Z,39.15
2023-01-19T00:48:18.058Z,39.10
2023-01-19T00:50:45.388Z,37.97
2023-01-19T00:53:12.773Z,37.97
2023-01-19T00:55:40.108Z,39.63
2023-01-19T00:58:07.460Z,40.30
2023-01-19T01:00:35.170Z,37.55
2023-01-19T01:03:03.391Z,36.92
2023-01-19T01:05:31.393Z,36.95
2023-01-19T01:07:58.789Z,35.92
2023-01-19T01:10:29.038Z,38.83
2023-01-19T01:12:59.270Z,37.88
2023-01-19T01:15:28.117Z,38.60
2023-01-19T01:17:55.893Z,40.53
2023-01-19T01:20:27.773Z,38.35
2023-01-19T01:22:56.523Z,38.08
2023-01-19T01:25:25.543Z,39.15
2023-01-19T01:27:53.363Z,38.40
2023-01-19T01:30:21.614Z,39.10
2023-01-19T01:32:50.089Z,38.83
2023-01-19T01:35:17.598Z,39.60
2023-01-19T01:37:45.353Z,39.05
2023-01-19T01:40:15.688Z,38.65
2023-01-19T01:42:44.087Z,38.38
2023-01-19T01:45:38.340Z,38.95
2023-01-19T01:48:11.747Z,38.50
2023-01-19T01:51:04.804Z,36.45
2023-01-19T01:53:34.850Z,34.28
2023-01-19T01:56:07.375Z,35.60
2023-01-19T01:58:36.000Z,32.45
2023-01-19T02:01:37.610Z,33.42
2023-01-19T02:04:05.205Z,33.70
2023-01-19T02:06:32.665Z,34.53
2023-01-19T02:09:27.337Z,34.15
2023-01-19T02:12:14.113Z,35.97
2023-01-19T02:14:41.430Z,37.63
2023-01-19T02:17:09.139Z,39.75
2023-01-19T02:19:42.085Z,41.20
2023-01-19T02:22:20.640Z,39.53
2023-01-19T02:24:49.828Z,40.63
2023-01-19T02:27:17.640Z,40.53
2023-01-19T02:29:45.161Z,37.75
2023-01-19T02:32:12.841Z,36.53
2023-01-19T02:34:40.749Z,33.90
2023-01-19T02:37:12.200Z,33.03
2023-01-19T02:39:48.352Z,32.65
2023-01-19T02:42:24.016Z,32.60
2023-01-19T02:44:54.516Z,31.02
2023-01-19T02:47:23.052Z,32.22
2023-01-19T02:49:58.552Z,31.92
2023-01-19T02:52:26.807Z,31.42
2023-01-19T02:55:19.856Z,30.33
2023-01-19T02:58:01.601Z,28.77
2023-01-19T03:00:44.705Z,27.58
2023-01-19T03:03:30.800Z,27.75
2023-01-19T03:06:06.841Z,25.00
2023-01-19T03:08:56.018Z,24.42
2023-01-19T03:11:29.519Z,23.40
2023-01-19T03:14:02.934Z,22.67
2023-01-19T03:16:44.114Z,20.70
2023-01-19T03:19:27.304Z,21.07
2023-01-19T03:22:00.337Z,21.58
2023-01-19T03:24:31.680Z,22.27
2023-01-19T03:27:04.062Z,21.63
2023-01-19T03:29:34.839Z,22.00
2023-01-19T03:32:09.271Z,22.05
2023-01-19T03:34:39.406Z,22.45
2023-01-19T03:37:08.529Z,22.05
2023-01-19T03:39:36.134Z,24.23
2023-01-19T03:42:08.339Z,23.70
2023-01-19T03:44:38.420Z,24.13
2023-01-19T03:47:07.422Z,22.20
2023-01-19T03:49:36.278Z,24.33
2023-01-19T03:52:04.169Z,23.15
2023-01-19T03:54:32.153Z,23.60
2023-01-19T03:56:59.546Z,22.15
2023-01-19T03:59:26.912Z,23.52
2023-01-19T04:01:54.253Z,23.27
2023-01-19T04:04:21.631Z,23.52
2023-01-19T04:06:49.389Z,24.42
2023-01-19T04:09:19.189Z,23.15
2023-01-19T04:11:46.540Z,23.85
2023-01-19T04:14:13.832Z,23.35
2023-01-19T04:16:41.092Z,22.92
2023-01-19T04:19:08.398Z,22.65
2023-01-19T04:21:35.949Z,23.63
2023-01-19T04:24:04.333Z,23.20
2023-01-19T04:26:31.688Z,23.33
2023-01-19T04:28:59.103Z,22.52
2023-01-19T04:31:26.499Z,23.40
2023-01-19T04:33:55.870Z,24.40
2023-01-19T04:36:23.088Z,24.98
2023-01-19T04:38:50.385Z,24.23
2023-01-19T04:41:18.594Z,24.42
2023-01-19T04:43:47.660Z,24.50
2023-01-19T04:46:15.293Z,24.50
2023-01-19T04:48:43.128Z,24.63
2023-01-19T04:51:10.509Z,24.55
2023-01-19T04:53:37.787Z,24.70
2023-01-19T04:56:06.007Z,25.58
2023-01-19T04:58:33.263Z,23.60
2023-01-19T05:01:00.707Z,23.90
2023-01-19T05:03:27.985Z,23.38
2023-01-19T05:05:55.561Z,23.17
2023-01-19T05:08:23.088Z,22.60
2023-01-19T05:10:50.560Z,22.35
2023-01-19T05:13:17.882Z,21.52
2023-01-19T05:15:45.171Z,21.50
2023-01-19T05:18:13.067Z,20.92
2023-01-19T05:20:41.280Z,19.27
2023-01-19T05:23:08.612Z,21.40
2023-01-19T05:25:36.043Z,21.50
2023-01-19T05:28:03.990Z,21.33
2023-01-19T05:30:31.645Z,21.92
2023-01-19T05:32:59.388Z,22.13
2023-01-19T05:35:35.554Z,22.90
2023-01-19T05:38:04.145Z,22.90
2023-01-19T05:40:31.424Z,22.48
2023-01-19T05:43:02.005Z,25.40
2023-01-19T05:45:30.050Z,23.55
2023-01-19T05:47:57.432Z,24.98
2023-01-19T05:50:25.333Z,24.65
2023-01-19T05:52:55.642Z,23.80
2023-01-19T05:55:22.949Z,25.17
2023-01-19T05:57:50.222Z,24.77
2023-01-19T06:00:18.075Z,24.00
2023-01-19T06:02:49.337Z,25.25
2023-01-19T06:05:17.252Z,24.50
2023-01-19T06:07:44.605Z,24.30
2023-01-19T06:10:12.174Z,24.88
2023-01-19T06:12:41.545Z,22.35
2023-01-19T06:15:09.278Z,17.90
2023-01-19T06:17:36.982Z,16.70
2023-01-19T06:20:05.360Z,17.42
2023-01-19T06:22:32.939Z,15.10
2023-01-19T06:25:00.399Z,14.07
2023-01-19T06:27:27.956Z,12.50
2023-01-19T06:29:55.666Z,11.20
2023-01-19T06:32:23.006Z,9.50
2023-01-19T06:34:53.266Z,8.63
2023-01-19T06:37:21.410Z,8.45
2023-01-19T06:39:48.682Z,7.68
2023-01-19T06:42:16.407Z,7.78
2023-01-19T06:44:47.445Z,7.80
2023-01-19T06:47:17.723Z,8.15
2023-01-19T06:49:45.423Z,7.78
2023-01-19T06:52:15.943Z,7.90
2023-01-19T06:54:45.454Z,8.02
2023-01-19T06:57:13.918Z,8.10
2023-01-19T06:59:41.350Z,8.63
2023-01-19T07:02:26.293Z,8.00
2023-01-19T07:04:56.702Z,7.32
2023-01-19T07:07:24.066Z,7.25
2023-01-19T07:09:54.021Z,8.23
2023-01-19T07:12:22.493Z,7.57
2023-01-19T07:14:50.447Z,7.78
2023-01-19T07:17:17.785Z,8.10
2023-01-19T07:19:46.276Z,7.97
2023-01-19T07:22:13.729Z,8.88
2023-01-19T07:24:41.626Z,8.23
2023-01-19T07:27:11.535Z,10.07
2023-01-19T07:29:39.345Z,8.45
2023-01-19T07:32:07.564Z,8.30
2023-01-19T07:34:35.986Z,8.40
2023-01-19T07:37:04.487Z,9.18
2023-01-19T07:39:32.082Z,12.57
2023-01-19T07:41:59.783Z,7.65
2023-01-19T07:44:27.228Z,7.15
2023-01-19T07:46:54.486Z,6.30
2023-01-19T07:49:21.755Z,5.80
2023-01-19T07:51:49.606Z,6.20
2023-01-19T07:54:16.929Z,6.82
2023-01-19T07:56:44.194Z,6.45
2023-01-19T07:59:12.106Z,7.90
2023-01-19T08:01:40.930Z,8.35
2023-01-19T08:04:08.354Z,8.60
2023-01-19T08:06:39.021Z,9.93
2023-01-19T08:09:07.213Z,5.97
2023-01-19T08:11:34.556Z,6.18
2023-01-19T08:14:02.509Z,6.32
2023-01-19T08:16:30.322Z,12.52
2023-01-19T08:18:57.606Z,8.20
2023-01-19T08:21:24.955Z,8.15
2023-01-19T08:23:56.470Z,7.60
2023-01-19T08:26:28.122Z,7.60
2023-01-19T08:28:58.089Z,7.72
2023-01-19T08:31:26.906Z,8.73
2023-01-19T08:33:55.039Z,8.88
2023-01-19T08:36:23.008Z,9.00
2023-01-19T08:38:50.488Z,8.45
2023-01-19T08:41:18.210Z,9.00
2023-01-19T08:43:45.661Z,8.40
2023-01-19T08:46:17.578Z,7.90
2023-01-19T08:48:45.508Z,7.78
2023-01-19T08:51:12.805Z,8.93
2023-01-19T08:53:41.521Z,7.45
2023-01-19T08:56:13.913Z,14.82
2023-01-19T08:58:43.459Z,15.23
2023-01-19T09:01:14.655Z,8.02
2023-01-19T09:03:42.929Z,11.73
2023-01-19T09:06:13.111Z,11.07
2023-01-19T09:08:40.680Z,24.15
2023-01-19T09:11:13.066Z,17.50
2023-01-19T09:13:41.436Z,39.13
2023-01-19T09:16:12.696Z,22.95
2023-01-19T09:18:40.087Z,14.27
2023-01-19T09:21:08.244Z,9.68
2023-01-19T09:23:35.713Z,8.07
2023-01-19T09:26:05.550Z,11.60
2023-01-19T09:28:34.044Z,26.95
2023-01-19T09:31:09.155Z,15.50
2023-01-19T09:33:36.583Z,9.40
2023-01-19T09:36:04.047Z,10.10
2023-01-19T09:38:33.001Z,9.45
2023-01-19T09:41:01.098Z,7.57
2023-01-19T09:43:43.393Z,8.60
2023-01-19T09:46:22.785Z,8.85
2023-01-19T09:48:54.006Z,8.50
2023-01-19T09:51:28.945Z,8.90
2023-01-19T09:54:20.755Z,21.17
2023-01-19T09:56:52.356Z,23.02
2023-01-19T09:59:31.625Z,9.00
2023-01-19T10:02:28.002Z,13.15
2023-01-19T10:05:22.296Z,7.88
2023-01-19T10:08:20.220Z,5.97
2023-01-19T10:10:53.368Z,5.72
2023-01-19T10:13:29.692Z,6.28
2023-01-19T10:16:14.572Z,9.43
2023-01-19T10:18:48.185Z,18.52
2023-01-19T10:21:26.433Z,10.95
2023-01-19T10:24:25.804Z,8.45
2023-01-19T10:26:56.276Z,5.30
2023-01-19T10:29:37.293Z,5.80
2023-01-19T10:32:19.881Z,5.60
2023-01-19T10:34:49.219Z,9.60
2023-01-19T10:37:29.428Z,5.07
2023-01-19T10:40:25.475Z,4.78
2023-01-19T10:42:53.196Z,8.13
2023-01-19T10:45:25.883Z,16.85
2023-01-19T10:47:54.705Z,14.70
2023-01-19T10:50:24.303Z,16.60
2023-01-19T10:52:54.145Z,17.70
2023-01-19T10:55:30.521Z,7.28
2023-01-19T10:57:59.305Z,11.02
2023-01-19T11:00:30.329Z,10.70
2023-01-19T11:02:57.846Z,9.87
2023-01-19T11:05:30.365Z,8.13
2023-01-19T11:07:58.612Z,7.32
2023-01-19T11:10:28.423Z,5.38
2023-01-19T11:12:57.496Z,14.00
2023-01-19T11:15:27.521Z,6.03
2023-01-19T11:17:55.249Z,7.22
2023-01-19T11:20:24.650Z,5.47
2023-01-19T11:23:19.792Z,3.75
2023-01-19T11:25:49.232Z,3.10
2023-01-19T11:28:30.149Z,3.55
2023-01-19T11:31:00.998Z,4.20
2023-01-19T11:33:36.090Z,3.90
2023-01-19T11:36:07.447Z,4.05
2023-01-19T11:38:43.527Z,4.05
2023-01-19T11:41:21.989Z,4.25
2023-01-19T11:43:54.032Z,4.47
2023-01-19T11:49:22.117Z,4.57
2023-01-19T11:52:18.451Z,4.28
2023-01-19T11:54:54.872Z,4.28
2023-01-19T11:57:22.692Z,5.30
2023-01-19T11:59:52.813Z,5.82
2023-01-19T12:02:30.404Z,5.63
2023-01-19T12:05:07.341Z,6.63
2023-01-19T12:07:37.492Z,4.65
2023-01-19T12:10:31.536Z,5.55
2023-01-19T12:13:00.384Z,5.30
2023-01-19T12:15:31.480Z,6.53
2023-01-19T12:18:02.199Z,11.10
2023-01-19T12:20:38.998Z,8.00
2023-01-19T12:23:25.138Z,7.78
2023-01-19T12:26:29.487Z,6.32
2023-01-19T12:29:04.164Z,8.82
2023-01-19T12:31:31.785Z,9.20
2023-01-19T12:34:25.060Z,7.57
2023-01-19T12:36:55.468Z,9.95
2023-01-19T12:39:25.141Z,6.88
2023-01-19T12:42:14.827Z,12.55
2023-01-19T12:44:44.105Z,9.30
2023-01-19T12:47:13.005Z,10.85
2023-01-19T12:49:53.075Z,8.73
2023-01-19T12:52:34.563Z,6.75
2023-01-19T12:55:14.322Z,8.50
2023-01-19T12:57:48.115Z,8.18
2023-01-19T13:00:37.278Z,7.40
2023-01-19T13:03:17.789Z,6.88
2023-01-19T13:05:48.878Z,8.18
2023-01-19T13:08:19.349Z,7.55
2023-01-19T13:10:59.345Z,7.15
2023-01-19T13:13:32.829Z,6.68
2023-01-19T13:16:20.301Z,7.30
2023-01-19T13:18:53.446Z,12.30
2023-01-19T13:21:30.369Z,16.75
2023-01-19T13:24:19.303Z,20.23
2023-01-19T13:26:49.735Z,10.43
2023-01-19T13:29:34.519Z,7.88
2023-01-19T13:32:05.650Z,5.80
2023-01-19T13:34:40.540Z,6.03
2023-01-19T13:37:18.160Z,7.15
2023-01-19T13:39:50.131Z,6.80
2023-01-19T13:42:37.744Z,7.57
2023-01-19T13:45:24.753Z,7.25
2023-01-19T13:47:52.925Z,8.00
2023-01-19T13:50:23.436Z,10.23
2023-01-19T13:52:53.801Z,16.73
2023-01-19T13:55:22.880Z,7.25
2023-01-19T13:57:53.892Z,10.80
2023-01-19T14:00:24.514Z,8.50
2023-01-19T14:02:57.066Z,7.65
2023-01-19T14:05:42.415Z,6.40
2023-01-19T14:08:13.160Z,6.55
2023-01-19T14:10:47.505Z,7.57
2023-01-19T14:13:20.062Z,7.45
2023-01-19T14:15:49.258Z,6.53
2023-01-19T14:18:16.677Z,7.18
2023-01-19T14:21:14.444Z,7.53
2023-01-19T14:23:50.999Z,7.68
2023-01-19T14:26:41.677Z,8.60
2023-01-19T14:29:15.434Z,7.65
2023-01-19T14:31:45.064Z,7.40
2023-01-19T14:34:43.796Z,8.57
2023-01-19T14:37:47.085Z,7.50
2023-01-19T14:40:20.405Z,6.82
2023-01-19T14:42:53.845Z,7.57
2023-01-19T14:45:23.344Z,8.30
2023-01-19T14:48:05.338Z,7.88
2023-01-19T14:50:36.628Z,7.75
2023-01-19T14:53:07.067Z,7.47
2023-01-19T14:55:50.830Z,9.40
2023-01-19T14:58:20.099Z,9.32
2023-01-19T15:00:49.130Z,9.50
2023-01-19T15:03:17.044Z,11.02
2023-01-19T15:05:46.869Z,10.15
2023-01-19T15:08:22.997Z,10.75
2023-01-19T15:10:51.171Z,9.90
2023-01-19T15:13:23.805Z,10.90
2023-01-19T15:15:51.785Z,11.13
2023-01-19T15:18:26.772Z,10.75
2023-01-19T15:21:02.712Z,12.90
2023-01-19T15:23:31.123Z,13.88
2023-01-19T15:26:01.372Z,12.50
2023-01-19T15:28:29.772Z,11.88
2023-01-19T15:30:59.210Z,11.23
2023-01-19T15:33:32.997Z,10.77
2023-01-19T15:36:00.312Z,12.93
2023-01-19T15:38:28.111Z,12.18
2023-01-19T15:40:55.779Z,12.90
2023-01-19T15:43:23.067Z,11.60
2023-01-19T15:46:01.902Z,13.10
2023-01-19T15:48:29.559Z,14.93
2023-01-19T15:50:57.378Z,15.93
2023-01-19T15:53:27.179Z,14.35
2023-01-19T15:55:56.774Z,14.35
2023-01-19T15:58:25.018Z,12.98
2023-01-19T16:00:58.208Z,14.65
2023-01-19T16:03:26.601Z,17.20
2023-01-19T16:05:53.891Z,12.48
2023-01-19T16:08:22.052Z,7.43
2023-01-19T16:10:49.877Z,8.88
2023-01-19T16:13:17.193Z,13.27
2023-01-19T16:15:44.467Z,11.27
2023-01-19T16:18:12.216Z,9.93
2023-01-19T16:20:39.542Z,8.15
2023-01-19T16:23:14.977Z,6.80
2023-01-19T16:25:42.972Z,6.53
2023-01-19T16:28:10.285Z,10.38
2023-01-19T16:30:37.623Z,10.38
2023-01-19T16:33:05.516Z,9.48
2023-01-19T16:35:32.798Z,9.13
2023-01-19T16:38:00.173Z,8.85
2023-01-19T16:40:27.486Z,7.88
2023-01-19T16:42:54.819Z,9.15
2023-01-19T16:45:22.660Z,9.65
2023-01-19T16:47:52.180Z,10.15
2023-01-19T16:50:19.889Z,9.68
2023-01-19T16:52:47.849Z,11.85
2023-01-19T16:55:15.147Z,15.07
2023-01-19T16:57:42.981Z,12.15
2023-01-19T17:00:11.451Z,12.07
2023-01-19T17:02:39.766Z,11.50
2023-01-19T17:05:07.575Z,10.15
2023-01-19T17:07:34.941Z,12.10
2023-01-19T17:10:02.295Z,11.18
2023-01-19T17:12:32.154Z,11.10
2023-01-19T17:14:59.700Z,11.18
2023-01-19T17:17:27.058Z,13.35
2023-01-19T17:19:54.345Z,13.30
2023-01-19T17:22:21.745Z,12.48
2023-01-19T17:24:49.864Z,10.52
2023-01-19T17:27:17.311Z,11.13
2023-01-19T17:29:44.548Z,11.40
2023-01-19T17:32:12.390Z,11.10
2023-01-19T17:34:39.720Z,13.13
2023-01-19T17:37:07.612Z,15.63
2023-01-19T17:39:35.309Z,16.00
2023-01-19T17:42:03.864Z,14.02
2023-01-19T17:44:31.250Z,13.38
2023-01-19T17:46:59.940Z,17.20
2023-01-19T17:49:30.493Z,15.80
2023-01-19T17:51:58.263Z,13.73
2023-01-19T17:54:25.661Z,12.68
2023-01-19T17:56:53.382Z,12.65
2023-01-19T17:59:20.677Z,12.50
2023-01-19T18:01:48.398Z,11.40
2023-01-19T18:04:16.296Z,14.20
2023-01-19T18:06:45.038Z,14.98
2023-01-19T18:09:12.454Z,10.57
2023-01-19T18:11:39.766Z,10.63
2023-01-19T18:14:07.486Z,10.57
2023-01-19T18:16:35.885Z,12.93
2023-01-19T18:19:03.617Z,17.02
2023-01-19T18:21:30.966Z,22.83
2023-01-19T18:24:01.359Z,22.30
2023-01-19T18:26:30.162Z,20.02
2023-01-19T18:28:58.421Z,16.80
2023-01-19T18:31:26.724Z,15.23
2023-01-19T18:33:54.168Z,12.63
2023-01-19T18:36:21.932Z,18.25
2023-01-19T18:38:50.024Z,17.20
2023-01-19T18:41:19.672Z,12.15
2023-01-19T18:43:47.609Z,8.52
2023-01-19T18:46:16.155Z,7.57
2023-01-19T18:48:43.928Z,6.93
2023-01-19T18:51:14.613Z,6.45
2023-01-19T18:53:43.040Z,8.88
2023-01-19T18:56:15.541Z,17.67
2023-01-19T18:58:44.039Z,18.63
2023-01-19T19:01:23.041Z,17.08
2023-01-19T19:03:51.891Z,12.95
2023-01-19T19:06:20.906Z,13.13
2023-01-19T19:08:52.047Z,14.95
2023-01-19T19:11:20.726Z,14.75
2023-01-19T19:13:53.729Z,14.23
2023-01-19T19:16:21.264Z,15.75
2023-01-19T19:18:51.992Z,16.55
2023-01-19T19:21:21.870Z,19.67
2023-01-19T19:23:51.889Z,12.55
2023-01-19T19:26:19.734Z,17.40
2023-01-19T19:28:47.395Z,25.45
2023-01-19T19:31:20.513Z,31.58
2023-01-19T19:33:50.814Z,31.88
2023-01-19T19:36:20.214Z,36.63
2023-01-19T19:38:48.817Z,24.95
2023-01-19T19:41:22.790Z,20.73
2023-01-19T19:43:50.746Z,15.18
2023-01-19T19:46:20.166Z,15.13
2023-01-19T19:48:48.863Z,11.80
2023-01-19T19:51:19.074Z,9.73
2023-01-19T19:53:49.555Z,11.75
2023-01-19T19:56:21.100Z,11.35
2023-01-19T19:58:50.273Z,11.27
2023-01-19T20:01:20.912Z,11.32
2023-01-19T20:03:48.919Z,12.35
2023-01-19T20:06:20.718Z,12.98
2023-01-19T20:11:19.188Z,17.95
2023-01-19T20:13:47.679Z,17.55
2023-01-19T20:16:17.691Z,19.10
2023-01-19T20:18:54.281Z,32.92
2023-01-19T20:21:28.680Z,22.73
2023-01-19T20:24:01.047Z,20.60
2023-01-19T20:26:32.182Z,18.38
2023-01-19T20:29:08.204Z,19.67
2023-01-19T20:31:41.946Z,19.08
2023-01-19T20:34:12.025Z,18.90
2023-01-19T20:36:41.178Z,19.88
2023-01-19T20:39:10.900Z,22.63
2023-01-19T20:41:43.603Z,24.73
2023-01-19T20:44:17.094Z,28.80
2023-01-19T20:46:44.968Z,27.42
2023-01-19T20:49:12.759Z,23.38
2023-01-19T20:51:46.060Z,30.20
2023-01-19T20:54:15.696Z,24.10
2023-01-19T20:56:43.032Z,21.17
2023-01-19T20:59:11.018Z,22.23
2023-01-19T21:01:39.381Z,21.02
2023-01-19T21:04:07.657Z,18.92
2023-01-19T21:06:35.291Z,25.75
2023-01-19T21:09:03.066Z,30.20
2023-01-19T21:11:30.779Z,25.75
2023-01-19T21:13:58.230Z,31.52
2023-01-19T21:16:28.984Z,33.47
2023-01-19T21:18:56.352Z,21.20
2023-01-19T21:21:30.687Z,18.90
2023-01-19T21:24:02.504Z,20.85
2023-01-19T21:26:31.430Z,23.52
2023-01-19T21:29:00.646Z,20.08
2023-01-19T21:31:28.761Z,28.15
2023-01-19T21:33:57.591Z,26.88
2023-01-19T21:36:25.513Z,26.58
2023-01-19T21:38:55.574Z,22.65
2023-01-19T21:41:23.133Z,18.73
2023-01-19T21:43:50.359Z,18.30
2023-01-19T21:46:21.358Z,18.75
2023-01-19T21:48:48.706Z,23.57
2023-01-19T21:51:16.269Z,21.10
2023-01-19T21:53:43.685Z,23.85
2023-01-19T21:56:11.742Z,23.73
2023-01-19T21:58:39.072Z,27.73
2023-01-19T22:01:13.721Z,32.42
2023-01-19T22:03:42.901Z,22.23
2023-01-19T22:06:13.789Z,19.85
2023-01-19T22:08:41.468Z,19.42
2023-01-19T22:11:11.451Z,21.45
2023-01-19T22:13:39.083Z,20.13
2023-01-19T22:16:10.557Z,19.27
2023-01-19T22:18:40.903Z,18.02
2023-01-19T22:21:19.504Z,20.80
2023-01-19T22:23:52.320Z,21.35
2023-01-19T22:26:20.179Z,23.63
2023-01-19T22:28:47.792Z,19.80
2023-01-19T22:31:17.814Z,25.38
2023-01-19T22:33:45.619Z,23.55
2023-01-19T22:36:19.641Z,19.40
2023-01-19T22:38:52.259Z,19.42
2023-01-19T22:41:23.961Z,19.17
2023-01-19T22:43:54.783Z,20.27
2023-01-19T22:46:24.990Z,18.75
2023-01-19T22:48:54.039Z,20.65
2023-01-19T22:51:22.352Z,18.85
2023-01-19T22:53:50.393Z,19.63
2023-01-19T22:56:19.886Z,18.95
2023-01-19T22:58:47.835Z,19.42
2023-01-19T23:01:38.297Z,20.55
2023-01-19T23:04:06.634Z,20.40
2023-01-19T23:06:36.159Z,19.48
2023-01-19T23:09:06.638Z,19.15
2023-01-19T23:11:40.171Z,18.38
2023-01-19T23:14:10.258Z,18.85
2023-01-19T23:16:38.152Z,19.45
2023-01-19T23:19:05.767Z,18.40
2023-01-19T23:21:33.931Z,17.88
2023-01-19T23:24:03.321Z,18.80
2023-01-19T23:26:37.985Z,18.88
2023-01-19T23:29:15.403Z,19.73
2023-01-19T23:31:45.907Z,19.15
2023-01-19T23:34:14.288Z,20.50
2023-01-19T23:36:42.904Z,20.45
2023-01-19T23:39:19.732Z,21.48
2023-01-19T23:41:47.683Z,21.00
2023-01-19T23:44:17.111Z,21.30
2023-01-19T23:46:45.079Z,21.98
2023-01-19T23:49:13.327Z,22.17
2023-01-19T23:51:41.859Z,21.75
2023-01-19T23:54:09.455Z,21.17
2023-01-19T23:56:38.401Z,21.85
2023-01-19T23:59:15.010Z,23.23
